createdAt,value
2019-03-15T00:01:41.803Z,15.85
2019-03-15T00:04:10.199Z,19.35
2019-03-15T00:06:38.634Z,21.93
2019-03-15T00:09:08.838Z,20.15
2019-03-15T00:11:37.310Z,19.23
2019-03-15T00:14:05.870Z,14.05
2019-03-15T00:16:34.296Z,16.07
2019-03-15T00:19:02.788Z,20.52
2019-03-15T00:21:31.246Z,20.20
2019-03-15T00:23:59.700Z,21.70
2019-03-15T00:26:28.086Z,10.70
2019-03-15T00:28:56.499Z,19.92
2019-03-15T00:31:24.944Z,20.57
2019-03-15T00:33:53.350Z,13.75
2019-03-15T00:36:21.772Z,29.20
2019-03-15T00:38:50.160Z,17.30
2019-03-15T00:41:18.594Z,23.15
2019-03-15T00:43:49.471Z,13.43
2019-03-15T00:46:17.089Z,16.05
2019-03-15T00:48:45.635Z,28.85
2019-03-15T00:51:14.148Z,18.55
2019-03-15T00:53:42.603Z,13.88
2019-03-15T00:56:11.526Z,12.63
2019-03-15T00:58:40.273Z,18.48
2019-03-15T01:01:08.935Z,18.67
2019-03-15T01:03:37.961Z,14.53
2019-03-15T01:06:06.341Z,22.42
2019-03-15T01:08:34.762Z,21.93
2019-03-15T01:11:03.223Z,22.17
2019-03-15T01:13:31.657Z,23.92
2019-03-15T01:16:00.057Z,17.80
2019-03-15T01:18:28.502Z,21.42
2019-03-15T01:20:56.888Z,18.55
2019-03-15T01:23:25.387Z,8.83
2019-03-15T01:25:53.828Z,24.10
2019-03-15T01:28:22.321Z,22.30
2019-03-15T01:30:50.690Z,13.62
2019-03-15T01:33:19.087Z,14.65
2019-03-15T01:35:47.645Z,21.25
2019-03-15T01:38:16.051Z,24.12
2019-03-15T01:40:44.513Z,23.80
2019-03-15T01:43:13.277Z,22.67
2019-03-15T01:45:41.876Z,23.87
2019-03-15T01:48:10.469Z,19.57
2019-03-15T01:50:38.894Z,15.70
2019-03-15T01:53:07.552Z,20.85
2019-03-15T01:55:35.927Z,23.65
2019-03-15T01:58:04.346Z,24.90
2019-03-15T02:00:32.919Z,17.87
2019-03-15T02:03:02.514Z,26.77
2019-03-15T02:05:31.122Z,24.02
2019-03-15T02:08:00.689Z,28.95
2019-03-15T02:10:29.435Z,19.73
2019-03-15T02:12:57.810Z,25.43
2019-03-15T02:15:26.254Z,20.97
2019-03-15T02:17:54.688Z,25.02
2019-03-15T02:20:23.106Z,28.87
2019-03-15T02:22:51.529Z,34.75
2019-03-15T02:25:19.978Z,35.52
2019-03-15T02:27:48.373Z,30.88
2019-03-15T02:30:16.944Z,38.50
2019-03-15T02:32:45.399Z,40.88
2019-03-15T02:35:13.891Z,44.03
2019-03-15T02:37:42.290Z,36.13
2019-03-15T02:40:10.712Z,41.63
2019-03-15T02:42:39.169Z,23.02
2019-03-15T02:45:07.616Z,29.18
2019-03-15T02:47:37.239Z,32.33
2019-03-15T02:50:06.878Z,37.93
2019-03-15T02:52:35.459Z,35.78
2019-03-15T02:55:04.716Z,33.35
2019-03-15T02:57:33.344Z,34.60
2019-03-15T03:00:01.955Z,34.70
2019-03-15T03:02:30.586Z,39.95
2019-03-15T03:04:58.933Z,30.65
2019-03-15T03:07:27.346Z,33.70
2019-03-15T03:09:55.768Z,25.92
2019-03-15T03:12:24.185Z,31.33
2019-03-15T03:14:52.677Z,32.10
2019-03-15T03:17:21.095Z,24.57
2019-03-15T03:19:49.531Z,30.23
2019-03-15T03:22:18.021Z,29.72
2019-03-15T03:24:46.514Z,29.50
2019-03-15T03:27:14.991Z,33.25
2019-03-15T03:29:43.369Z,35.05
2019-03-15T03:32:13.600Z,34.92
2019-03-15T03:34:41.961Z,32.35
2019-03-15T03:37:10.358Z,28.05
2019-03-15T03:39:38.846Z,27.15
2019-03-15T03:42:07.279Z,32.53
2019-03-15T03:44:36.895Z,31.90
2019-03-15T03:47:06.899Z,30.02
2019-03-15T03:49:35.346Z,34.05
2019-03-15T03:52:03.729Z,38.28
2019-03-15T03:54:32.113Z,32.00
2019-03-15T03:57:00.578Z,36.65
2019-03-15T03:59:29.135Z,31.15
2019-03-15T04:01:57.620Z,37.98
2019-03-15T04:04:26.098Z,22.40
2019-03-15T04:06:54.599Z,30.50
2019-03-15T04:09:23.029Z,33.10
2019-03-15T04:11:55.758Z,36.65
2019-03-15T04:14:21.562Z,28.47
2019-03-15T04:16:49.964Z,32.93
2019-03-15T04:19:18.446Z,35.03
2019-03-15T04:21:46.907Z,35.03
2019-03-15T04:24:15.361Z,29.65
2019-03-15T04:26:43.758Z,36.00
2019-03-15T04:29:12.250Z,35.30
2019-03-15T04:31:40.627Z,27.55
2019-03-15T04:34:09.063Z,30.17
2019-03-15T04:36:37.478Z,27.00
2019-03-15T04:39:07.331Z,31.70
2019-03-15T04:41:35.760Z,33.67
2019-03-15T04:44:04.173Z,34.03
2019-03-15T04:46:33.903Z,30.80
2019-03-15T04:49:02.292Z,28.52
2019-03-15T04:51:30.714Z,27.77
2019-03-15T04:53:59.158Z,29.45
2019-03-15T04:56:27.555Z,38.08
2019-03-15T04:58:55.983Z,35.52
2019-03-15T05:01:25.553Z,33.83
2019-03-15T05:03:54.058Z,18.45
2019-03-15T05:06:22.499Z,31.10
2019-03-15T05:08:51.020Z,41.42
2019-03-15T05:11:19.445Z,37.50
2019-03-15T05:13:47.967Z,40.65
2019-03-15T05:16:16.407Z,35.05
2019-03-15T05:18:44.782Z,39.50
2019-03-15T05:21:13.211Z,27.65
2019-03-15T05:23:41.609Z,24.85
2019-03-15T05:26:10.038Z,30.80
2019-03-15T05:28:38.698Z,41.18
2019-03-15T05:31:07.090Z,31.17
2019-03-15T05:33:35.503Z,26.12
2019-03-15T05:36:03.958Z,37.35
2019-03-15T05:38:34.667Z,32.70
2019-03-15T05:41:02.422Z,39.50
2019-03-15T05:43:30.891Z,38.75
2019-03-15T05:45:59.403Z,42.88
2019-03-15T05:48:27.817Z,28.25
2019-03-15T05:50:56.272Z,43.90
2019-03-15T05:53:24.739Z,37.33
2019-03-15T05:55:53.105Z,40.45
2019-03-15T05:58:22.059Z,35.63
2019-03-15T06:00:50.658Z,39.30
2019-03-15T06:03:19.073Z,37.48
2019-03-15T06:05:49.808Z,34.43
2019-03-15T06:08:18.226Z,44.15
2019-03-15T06:10:46.604Z,42.75
2019-03-15T06:13:15.105Z,31.17
2019-03-15T06:15:43.599Z,23.55
2019-03-15T06:18:12.086Z,46.95
2019-03-15T06:20:40.558Z,37.40
2019-03-15T06:23:08.980Z,41.23
2019-03-15T06:25:37.439Z,40.50
2019-03-15T06:28:05.990Z,38.60
2019-03-15T06:30:34.397Z,39.95
2019-03-15T06:33:03.824Z,21.85
2019-03-15T06:35:32.270Z,39.27
2019-03-15T06:38:00.685Z,44.50
2019-03-15T06:40:29.103Z,30.20
2019-03-15T06:42:57.530Z,42.30
2019-03-15T06:45:26.005Z,43.50
2019-03-15T06:47:54.495Z,42.78
2019-03-15T06:50:23.300Z,37.20
2019-03-15T06:52:51.738Z,33.65
2019-03-15T06:55:20.197Z,41.13
2019-03-15T06:57:48.838Z,36.08
2019-03-15T07:00:17.289Z,39.80
2019-03-15T07:02:46.197Z,37.60
2019-03-15T07:05:14.825Z,41.25
2019-03-15T07:07:43.259Z,37.65
2019-03-15T07:10:11.822Z,31.70
2019-03-15T07:12:40.774Z,28.57
2019-03-15T07:15:12.188Z,33.65
2019-03-15T07:17:41.741Z,32.67
2019-03-15T07:20:13.059Z,22.22
2019-03-15T07:22:41.474Z,26.90
2019-03-15T07:25:10.266Z,42.67
2019-03-15T07:27:42.059Z,36.03
2019-03-15T07:30:13.570Z,31.07
2019-03-15T07:32:42.029Z,25.23
2019-03-15T07:35:10.604Z,34.90
2019-03-15T07:37:39.001Z,30.43
2019-03-15T07:40:10.447Z,15.20
2019-03-15T07:42:38.832Z,25.25
2019-03-15T07:45:12.063Z,24.00
2019-03-15T07:47:40.551Z,26.55
2019-03-15T07:50:16.314Z,22.07
2019-03-15T07:52:44.827Z,22.52
2019-03-15T07:55:13.210Z,25.10
2019-03-15T07:57:41.588Z,28.30
2019-03-15T08:00:12.250Z,24.18
2019-03-15T08:02:40.746Z,24.10
2019-03-15T08:05:10.044Z,20.70
2019-03-15T08:07:44.851Z,25.43
2019-03-15T08:10:10.771Z,26.35
2019-03-15T08:12:39.180Z,29.72
2019-03-15T08:15:11.567Z,27.00
2019-03-15T08:17:40.056Z,28.67
2019-03-15T08:20:13.647Z,30.15
2019-03-15T08:22:42.072Z,29.52
2019-03-15T08:25:11.430Z,31.65
2019-03-15T08:27:39.901Z,29.15
2019-03-15T08:30:15.724Z,29.57
2019-03-15T08:32:44.349Z,36.00
2019-03-15T08:35:13.223Z,31.52
2019-03-15T08:37:41.600Z,31.60
2019-03-15T08:40:12.493Z,32.85
2019-03-15T08:42:40.897Z,34.58
2019-03-15T08:45:12.221Z,32.73
2019-03-15T08:47:40.632Z,29.95
2019-03-15T08:50:15.383Z,21.70
2019-03-15T08:52:43.898Z,20.05
2019-03-15T08:55:13.277Z,24.50
2019-03-15T08:57:41.867Z,24.77
2019-03-15T09:00:19.440Z,30.57
2019-03-15T09:02:47.871Z,23.60
2019-03-15T09:05:16.894Z,31.70
2019-03-15T09:07:45.343Z,33.20
2019-03-15T09:10:23.187Z,21.45
2019-03-15T09:12:48.555Z,33.70
2019-03-15T09:15:17.031Z,31.33
2019-03-15T09:17:46.077Z,35.92
2019-03-15T09:20:15.310Z,28.10
2019-03-15T09:22:43.693Z,35.60
2019-03-15T09:25:20.174Z,18.90
2019-03-15T09:27:47.190Z,30.32
2019-03-15T09:30:23.754Z,38.17
2019-03-15T09:32:46.411Z,28.27
2019-03-15T09:35:14.790Z,25.30
2019-03-15T09:37:46.814Z,34.23
2019-03-15T09:40:16.374Z,24.87
2019-03-15T09:42:44.781Z,28.25
2019-03-15T09:45:14.352Z,29.90
2019-03-15T09:47:42.770Z,25.08
2019-03-15T09:50:23.149Z,25.68
2019-03-15T09:52:45.193Z,36.63
2019-03-15T09:55:14.257Z,35.90
2019-03-15T09:57:45.012Z,29.50
2019-03-15T10:00:17.162Z,21.27
2019-03-15T10:02:45.598Z,28.42
2019-03-15T10:05:14.346Z,28.27
2019-03-15T10:07:43.726Z,27.10
2019-03-15T10:10:18.310Z,32.90
2019-03-15T10:12:46.208Z,31.87
2019-03-15T10:15:15.351Z,28.40
2019-03-15T10:17:43.758Z,31.93
2019-03-15T10:20:13.029Z,32.88
2019-03-15T10:22:41.566Z,28.60
2019-03-15T10:25:16.605Z,29.25
2019-03-15T10:27:45.144Z,34.98
2019-03-15T10:30:18.500Z,35.65
2019-03-15T10:32:46.897Z,33.70
2019-03-15T10:35:15.327Z,47.58
2019-03-15T10:37:43.705Z,33.65
2019-03-15T10:40:21.943Z,38.45
2019-03-15T10:42:50.381Z,32.55
2019-03-15T10:45:18.814Z,35.60
2019-03-15T10:47:47.374Z,33.42
2019-03-15T10:50:17.991Z,29.63
2019-03-15T10:52:46.508Z,33.10
2019-03-15T10:55:15.217Z,23.10
2019-03-15T10:57:43.611Z,29.63
2019-03-15T11:00:20.459Z,34.25
2019-03-15T11:02:49.013Z,28.20
2019-03-15T11:05:17.496Z,34.35
2019-03-15T11:07:45.931Z,36.93
2019-03-15T11:10:14.352Z,26.42
2019-03-15T11:12:42.769Z,20.08
2019-03-15T11:15:15.892Z,27.85
2019-03-15T11:17:44.303Z,37.55
2019-03-15T11:20:13.256Z,32.42
2019-03-15T11:22:42.772Z,35.45
2019-03-15T11:25:12.134Z,36.00
2019-03-15T11:27:40.542Z,27.75
2019-03-15T11:30:13.523Z,34.20
2019-03-15T11:32:41.925Z,31.60
2019-03-15T11:35:11.010Z,29.90
2019-03-15T11:37:39.471Z,36.40
2019-03-15T11:40:13.977Z,34.98
2019-03-15T11:42:42.961Z,26.68
2019-03-15T11:45:12.330Z,30.35
2019-03-15T11:48:01.345Z,35.30
2019-03-15T11:50:21.267Z,36.83
2019-03-15T11:52:49.702Z,28.92
2019-03-15T11:55:18.540Z,35.40
2019-03-15T11:57:46.935Z,32.20
2019-03-15T12:00:16.391Z,38.35
2019-03-15T12:02:44.820Z,31.25
2019-03-15T12:05:13.248Z,47.43
2019-03-15T12:07:41.660Z,33.15
2019-03-15T12:10:16.196Z,38.42
2019-03-15T12:12:44.346Z,35.68
2019-03-15T12:15:15.071Z,28.57
2019-03-15T12:17:45.159Z,34.98
2019-03-15T12:20:14.527Z,34.80
2019-03-15T12:22:42.948Z,35.98
2019-03-15T12:25:12.054Z,32.28
2019-03-15T12:27:40.464Z,36.25
2019-03-15T12:30:18.248Z,38.17
2019-03-15T12:32:47.899Z,37.70
2019-03-15T12:35:16.614Z,36.85
2019-03-15T12:37:45.064Z,44.38
2019-03-15T12:40:17.253Z,42.58
2019-03-15T12:42:45.751Z,36.53
2019-03-15T12:45:14.727Z,33.50
2019-03-15T12:47:43.115Z,28.92
2019-03-15T12:50:12.698Z,37.38
2019-03-15T12:52:47.778Z,30.05
2019-03-15T12:55:14.981Z,36.98
2019-03-15T12:57:43.502Z,41.02
2019-03-15T13:00:19.183Z,32.75
2019-03-15T13:02:47.636Z,27.60
2019-03-15T13:05:16.155Z,30.08
2019-03-15T13:07:44.538Z,30.55
2019-03-15T13:10:26.250Z,35.92
2019-03-15T13:12:54.670Z,35.23
2019-03-15T13:15:23.125Z,36.38
2019-03-15T13:17:51.512Z,35.83
2019-03-15T13:20:21.965Z,38.02
2019-03-15T13:22:50.585Z,35.83
2019-03-15T13:25:19.024Z,30.55
2019-03-15T13:27:47.476Z,27.67
2019-03-15T13:30:18.853Z,29.95
2019-03-15T13:32:47.351Z,32.88
2019-03-15T13:35:15.733Z,28.77
2019-03-15T13:37:44.170Z,22.30
2019-03-15T13:40:20.161Z,35.20
2019-03-15T13:42:48.624Z,32.78
2019-03-15T13:45:17.176Z,36.23
2019-03-15T13:47:46.965Z,33.00
2019-03-15T13:50:19.377Z,37.28
2019-03-15T13:52:47.761Z,27.55
2019-03-15T13:55:16.189Z,38.55
2019-03-15T13:57:44.628Z,52.35
2019-03-15T14:00:19.903Z,40.10
2019-03-15T14:02:48.322Z,38.38
2019-03-15T14:05:16.737Z,35.33
2019-03-15T14:07:45.259Z,43.00
2019-03-15T14:10:14.718Z,33.02
2019-03-15T14:12:43.204Z,70.40
2019-03-15T14:15:13.746Z,48.92
2019-03-15T14:17:42.358Z,49.33
2019-03-15T14:20:12.043Z,70.08
2019-03-15T14:22:40.441Z,62.05
2019-03-15T14:25:12.427Z,28.05
2019-03-15T14:27:40.981Z,41.43
2019-03-15T14:30:12.318Z,55.12
2019-03-15T14:32:40.754Z,62.45
2019-03-15T14:35:09.912Z,50.23
2019-03-15T14:37:38.317Z,35.55
2019-03-15T14:40:11.319Z,40.08
2019-03-15T14:42:39.939Z,36.10
2019-03-15T14:45:13.147Z,28.65
2019-03-15T14:47:41.781Z,48.45
2019-03-15T14:50:11.257Z,44.05
2019-03-15T14:52:39.663Z,52.75
2019-03-15T14:55:09.816Z,40.70
2019-03-15T14:57:51.114Z,41.05
2019-03-15T15:00:14.141Z,49.83
2019-03-15T15:02:42.567Z,43.13
2019-03-15T15:05:12.215Z,46.25
2019-03-15T15:07:40.685Z,49.73
2019-03-15T15:10:14.466Z,41.80
2019-03-15T15:12:44.041Z,45.60
2019-03-15T15:15:13.772Z,43.55
2019-03-15T15:17:42.229Z,43.95
2019-03-15T15:20:11.560Z,37.38
2019-03-15T15:22:39.935Z,38.60
2019-03-15T15:25:10.814Z,37.80
2019-03-15T15:27:39.263Z,42.85
2019-03-15T15:30:12.122Z,43.28
2019-03-15T15:35:10.182Z,31.35
2019-03-15T15:37:38.584Z,42.62
2019-03-15T15:40:12.395Z,31.93
2019-03-15T15:42:40.793Z,53.15
2019-03-15T15:45:12.959Z,35.98
2019-03-15T15:47:41.452Z,36.50
2019-03-15T15:50:14.727Z,34.43
2019-03-15T15:52:43.157Z,40.08
2019-03-15T15:55:15.681Z,33.55
2019-03-15T15:57:44.200Z,33.95
2019-03-15T16:00:17.431Z,38.58
2019-03-15T16:02:45.922Z,32.17
2019-03-15T16:05:14.311Z,42.75
2019-03-15T16:07:42.743Z,27.15
2019-03-15T16:10:17.981Z,25.95
2019-03-15T16:12:45.251Z,29.07
2019-03-15T16:15:18.518Z,22.50
2019-03-15T16:17:46.994Z,31.85
2019-03-15T16:20:15.540Z,25.08
2019-03-15T16:22:44.028Z,30.15
2019-03-15T16:25:12.845Z,29.80
2019-03-15T16:27:42.350Z,29.10
2019-03-15T16:30:19.765Z,30.52
2019-03-15T16:32:48.274Z,31.48
2019-03-15T16:35:16.723Z,25.62
2019-03-15T16:37:45.223Z,20.43
2019-03-15T16:40:14.616Z,17.75
2019-03-15T16:42:42.997Z,15.60
2019-03-15T16:45:23.639Z,24.67
2019-03-15T16:47:52.029Z,34.40
2019-03-15T16:50:20.449Z,30.82
2019-03-15T16:52:48.837Z,27.90
2019-03-15T16:55:17.219Z,27.25
2019-03-15T16:57:45.643Z,25.17
2019-03-15T17:00:17.492Z,31.52
2019-03-15T17:02:45.951Z,24.97
2019-03-15T17:05:14.674Z,31.42
2019-03-15T17:07:43.622Z,36.73
2019-03-15T17:10:16.240Z,34.25
2019-03-15T17:12:45.020Z,26.57
2019-03-15T17:15:16.120Z,38.20
2019-03-15T17:17:44.611Z,37.85
2019-03-15T17:20:13.011Z,40.43
2019-03-15T17:22:41.409Z,39.08
2019-03-15T17:25:11.456Z,38.80
2019-03-15T17:27:40.032Z,35.90
2019-03-15T17:30:16.402Z,35.13
2019-03-15T17:32:44.802Z,37.63
2019-03-15T17:35:14.556Z,34.83
2019-03-15T17:37:42.994Z,39.65
2019-03-15T17:40:19.689Z,35.28
2019-03-15T17:42:48.110Z,37.73
2019-03-15T17:45:16.552Z,32.75
2019-03-15T17:47:45.050Z,32.23
2019-03-15T17:50:20.347Z,30.68
2019-03-15T17:52:48.748Z,37.58
2019-03-15T17:55:17.520Z,28.07
2019-03-15T17:57:47.153Z,25.30
2019-03-15T18:00:35.586Z,18.77
2019-03-15T18:03:04.326Z,21.27
2019-03-15T18:05:32.778Z,30.62
2019-03-15T18:08:01.194Z,28.00
2019-03-15T18:10:32.532Z,32.23
2019-03-15T18:12:59.760Z,38.90
2019-03-15T18:15:28.175Z,36.63
2019-03-15T18:17:59.796Z,36.85
2019-03-15T18:20:26.665Z,23.45
2019-03-15T18:22:55.116Z,38.38
2019-03-15T18:25:23.625Z,27.93
2019-03-15T18:27:52.091Z,35.65
2019-03-15T18:30:20.530Z,41.60
2019-03-15T18:32:48.914Z,36.03
2019-03-15T18:35:17.373Z,28.70
2019-03-15T18:37:45.805Z,36.70
2019-03-15T18:40:17.439Z,47.70
2019-03-15T18:42:46.165Z,35.25
2019-03-15T18:45:17.797Z,34.75
2019-03-15T18:47:46.231Z,29.92
2019-03-15T18:50:25.522Z,37.58
2019-03-15T18:52:54.006Z,27.87
2019-03-15T18:55:22.437Z,24.15
2019-03-15T18:57:50.852Z,31.40
2019-03-15T19:00:21.511Z,39.90
2019-03-15T19:02:50.088Z,35.30
2019-03-15T19:05:18.518Z,35.03
2019-03-15T19:07:47.046Z,31.75
2019-03-15T19:10:16.038Z,29.02
2019-03-15T19:12:44.466Z,34.73
2019-03-15T19:15:14.593Z,34.65
2019-03-15T19:17:43.080Z,37.75
2019-03-15T19:20:13.887Z,29.12
2019-03-15T19:22:43.320Z,35.48
2019-03-15T19:25:12.398Z,30.10
2019-03-15T19:27:40.802Z,31.25
2019-03-15T19:30:15.329Z,31.37
2019-03-15T19:32:43.754Z,27.75
2019-03-15T19:35:12.230Z,24.92
2019-03-15T19:37:40.651Z,33.88
2019-03-15T19:40:20.255Z,27.52
2019-03-15T19:42:48.720Z,30.30
2019-03-15T19:45:17.507Z,28.83
2019-03-15T19:47:46.029Z,24.80
2019-03-15T19:50:15.887Z,22.37
2019-03-15T19:52:44.273Z,30.08
2019-03-15T19:55:14.167Z,26.70
2019-03-15T19:57:42.597Z,22.95
2019-03-15T20:00:13.354Z,18.25
2019-03-15T20:02:41.868Z,20.27
2019-03-15T20:05:10.387Z,24.27
2019-03-15T20:07:38.945Z,25.80
2019-03-15T20:10:17.364Z,24.10
2019-03-15T20:12:45.966Z,30.50
2019-03-15T20:15:15.319Z,22.90
2019-03-15T20:17:43.795Z,21.95
2019-03-15T20:20:13.655Z,22.62
2019-03-15T20:22:42.031Z,18.70
2019-03-15T20:25:12.619Z,34.27
2019-03-15T20:27:41.049Z,24.07
2019-03-15T20:30:21.970Z,29.42
2019-03-15T20:32:46.983Z,28.67
2019-03-15T20:35:15.497Z,26.33
2019-03-15T20:37:43.996Z,30.90
2019-03-15T20:40:13.544Z,22.60
2019-03-15T20:42:42.077Z,26.25
2019-03-15T20:45:15.277Z,25.77
2019-03-15T20:47:43.687Z,24.57
2019-03-15T20:50:13.581Z,25.50
2019-03-15T20:52:43.045Z,31.75
2019-03-15T20:55:11.663Z,30.57
2019-03-15T20:57:40.147Z,21.23
2019-03-15T21:00:30.227Z,21.02
2019-03-15T21:02:50.526Z,31.15
2019-03-15T21:05:18.896Z,34.78
2019-03-15T21:07:47.317Z,27.82
2019-03-15T21:10:17.194Z,37.10
2019-03-15T21:12:45.606Z,35.13
2019-03-15T21:15:15.897Z,36.85
2019-03-15T21:17:44.275Z,36.38
2019-03-15T21:20:15.114Z,40.88
2019-03-15T21:22:43.620Z,41.77
2019-03-15T21:25:12.122Z,35.92
2019-03-15T21:27:52.959Z,36.85
2019-03-15T21:30:20.442Z,42.27
2019-03-15T21:32:48.878Z,42.00
2019-03-15T21:35:18.530Z,36.20
2019-03-15T21:37:46.930Z,43.17
2019-03-15T21:40:16.622Z,43.70
2019-03-15T21:42:45.018Z,42.80
2019-03-15T21:45:13.470Z,52.35
2019-03-15T21:47:42.116Z,46.33
2019-03-15T21:50:19.201Z,52.08
2019-03-15T21:52:47.628Z,61.60
2019-03-15T21:55:16.052Z,64.30
2019-03-15T21:57:44.432Z,69.45
2019-03-15T22:00:17.825Z,65.60
2019-03-15T22:02:46.237Z,55.05
2019-03-15T22:05:14.638Z,51.58
2019-03-15T22:07:43.209Z,47.00
2019-03-15T22:10:13.018Z,33.48
2019-03-15T22:12:41.518Z,51.37
2019-03-15T22:15:10.805Z,46.80
2019-03-15T22:17:39.365Z,35.48
2019-03-15T22:20:16.029Z,46.80
2019-03-15T22:22:44.524Z,38.55
2019-03-15T22:25:12.946Z,42.40
2019-03-15T22:27:41.361Z,45.80
2019-03-15T22:30:12.778Z,33.98
2019-03-15T22:32:41.160Z,39.33
2019-03-15T22:35:09.686Z,44.65
2019-03-15T22:37:38.125Z,33.20
2019-03-15T22:40:08.502Z,55.78
2019-03-15T22:42:37.187Z,36.35
2019-03-15T22:45:07.730Z,45.50
2019-03-15T22:47:36.161Z,48.45
2019-03-15T22:50:06.143Z,41.58
2019-03-15T22:52:34.749Z,50.80
2019-03-15T22:55:05.269Z,44.25
2019-03-15T22:57:33.655Z,30.90
2019-03-15T23:00:02.183Z,57.38
2019-03-15T23:02:33.060Z,46.60
2019-03-15T23:05:01.396Z,46.65
2019-03-15T23:07:29.814Z,58.75
2019-03-15T23:09:58.342Z,59.25
2019-03-15T23:12:26.860Z,57.58
2019-03-15T23:14:55.336Z,36.75
2019-03-15T23:17:23.747Z,46.98
2019-03-15T23:19:53.589Z,54.83
2019-03-15T23:22:22.081Z,55.15
2019-03-15T23:24:52.141Z,65.85
2019-03-15T23:27:20.508Z,60.08
2019-03-15T23:29:48.959Z,44.98
2019-03-15T23:32:17.345Z,60.05
2019-03-15T23:34:45.753Z,62.83
2019-03-15T23:37:14.232Z,52.58
2019-03-15T23:39:42.606Z,48.52
2019-03-15T23:42:11.026Z,63.23
2019-03-15T23:44:39.441Z,60.50
2019-03-15T23:47:07.900Z,51.08
2019-03-15T23:49:36.318Z,52.65
2019-03-15T23:52:04.741Z,55.65
2019-03-15T23:54:33.194Z,54.58
2019-03-15T23:57:01.617Z,64.87
2019-03-15T23:59:30.053Z,55.73
